sensor_id;sensor_type;location;lat;lon;timestamp;P1;durP1;ratioP1;P2;durP2;ratioP2
34242;SDS011;20504;43.214;27.920;2023-05-23T00:02:04;11.25;;;4.93;;
34242;SDS011;20504;43.214;27.920;2023-05-23T00:04:33;8.85;;;3.90;;
34242;SDS011;20504;43.214;27.920;2023-05-23T00:07:00;12.13;;;4.40;;
34242;SDS011;20504;43.214;27.920;2023-05-23T00:09:27;12.38;;;4.60;;
34242;SDS011;20504;43.214;27.920;2023-05-23T00:11:52;12.40;;;4.10;;
34242;SDS011;20504;43.214;27.920;2023-05-23T00:14:18;8.23;;;4.30;;
34242;SDS011;20504;43.214;27.920;2023-05-23T00:16:43;8.83;;;4.23;;
34242;SDS011;20504;43.214;27.920;2023-05-23T00:19:10;9.85;;;3.92;;
34242;SDS011;20504;43.214;27.920;2023-05-23T00:21:38;7.03;;;4.15;;
34242;SDS011;20504;43.214;27.920;2023-05-23T00:26:31;11.52;;;3.78;;
34242;SDS011;20504;43.214;27.920;2023-05-23T00:28:57;15.33;;;4.60;;
34242;SDS011;20504;43.214;27.920;2023-05-23T00:31:22;12.63;;;4.57;;
34242;SDS011;20504;43.214;27.920;2023-05-23T00:33:48;10.13;;;4.00;;
34242;SDS011;20504;43.214;27.920;2023-05-23T00:36:14;9.30;;;4.07;;
34242;SDS011;20504;43.214;27.920;2023-05-23T00:38:39;18.23;;;4.40;;
34242;SDS011;20504;43.214;27.920;2023-05-23T00:41:05;11.13;;;4.70;;
34242;SDS011;20504;43.214;27.920;2023-05-23T00:43:30;6.97;;;3.83;;
34242;SDS011;20504;43.214;27.920;2023-05-23T00:45:56;10.37;;;4.30;;
34242;SDS011;20504;43.214;27.920;2023-05-23T00:48:25;8.20;;;4.03;;
34242;SDS011;20504;43.214;27.920;2023-05-23T00:50:51;6.53;;;3.97;;
34242;SDS011;20504;43.214;27.920;2023-05-23T00:53:17;9.73;;;4.40;;
34242;SDS011;20504;43.214;27.920;2023-05-23T00:55:44;7.75;;;4.22;;
34242;SDS011;20504;43.214;27.920;2023-05-23T00:58:10;11.65;;;4.13;;
34242;SDS011;20504;43.214;27.920;2023-05-23T01:00:37;10.18;;;4.63;;
34242;SDS011;20504;43.214;27.920;2023-05-23T01:03:03;11.32;;;4.10;;
34242;SDS011;20504;43.214;27.920;2023-05-23T01:05:29;9.35;;;4.20;;
34242;SDS011;20504;43.214;27.920;2023-05-23T01:07:55;7.60;;;4.38;;
34242;SDS011;20504;43.214;27.920;2023-05-23T01:10:22;9.97;;;4.13;;
34242;SDS011;20504;43.214;27.920;2023-05-23T01:16:01;7.40;;;4.00;;
34242;SDS011;20504;43.214;27.920;2023-05-23T01:18:45;8.25;;;3.90;;
34242;SDS011;20504;43.214;27.920;2023-05-23T01:21:18;14.77;;;4.25;;
34242;SDS011;20504;43.214;27.920;2023-05-23T01:29:08;8.32;;;4.32;;
34242;SDS011;20504;43.214;27.920;2023-05-23T01:31:43;9.52;;;4.70;;
34242;SDS011;20504;43.214;27.920;2023-05-23T01:34:13;9.85;;;4.45;;
34242;SDS011;20504;43.214;27.920;2023-05-23T01:36:41;11.35;;;4.78;;
34242;SDS011;20504;43.214;27.920;2023-05-23T01:39:07;11.07;;;4.30;;
34242;SDS011;20504;43.214;27.920;2023-05-23T01:41:33;10.93;;;4.63;;
34242;SDS011;20504;43.214;27.920;2023-05-23T01:43:58;9.57;;;5.07;;
34242;SDS011;20504;43.214;27.920;2023-05-23T01:46:25;10.20;;;4.38;;
34242;SDS011;20504;43.214;27.920;2023-05-23T01:48:52;10.95;;;4.28;;
34242;SDS011;20504;43.214;27.920;2023-05-23T01:51:20;6.60;;;4.35;;
34242;SDS011;20504;43.214;27.920;2023-05-23T01:53:47;8.50;;;4.47;;
34242;SDS011;20504;43.214;27.920;2023-05-23T01:56:14;9.18;;;4.47;;
34242;SDS011;20504;43.214;27.920;2023-05-23T01:58:39;11.90;;;4.53;;
34242;SDS011;20504;43.214;27.920;2023-05-23T02:01:05;11.07;;;4.63;;
34242;SDS011;20504;43.214;27.920;2023-05-23T02:03:30;12.30;;;4.63;;
34242;SDS011;20504;43.214;27.920;2023-05-23T02:05:56;9.90;;;5.33;;
34242;SDS011;20504;43.214;27.920;2023-05-23T02:08:22;6.63;;;3.97;;
34242;SDS011;20504;43.214;27.920;2023-05-23T02:10:47;8.53;;;4.17;;
34242;SDS011;20504;43.214;27.920;2023-05-23T02:13:13;10.40;;;4.27;;
34242;SDS011;20504;43.214;27.920;2023-05-23T02:15:38;9.60;;;4.67;;
34242;SDS011;20504;43.214;27.920;2023-05-23T02:18:04;8.70;;;4.43;;
34242;SDS011;20504;43.214;27.920;2023-05-23T02:20:30;8.82;;;3.72;;
34242;SDS011;20504;43.214;27.920;2023-05-23T02:22:56;13.17;;;4.10;;
34242;SDS011;20504;43.214;27.920;2023-05-23T02:25:21;7.53;;;4.57;;
34242;SDS011;20504;43.214;27.920;2023-05-23T02:27:46;8.10;;;4.27;;
34242;SDS011;20504;43.214;27.920;2023-05-23T02:30:12;7.67;;;4.13;;
34242;SDS011;20504;43.214;27.920;2023-05-23T02:32:38;6.27;;;4.40;;
34242;SDS011;20504;43.214;27.920;2023-05-23T02:35:03;11.47;;;4.50;;
34242;SDS011;20504;43.214;27.920;2023-05-23T02:37:30;7.72;;;4.45;;
34242;SDS011;20504;43.214;27.920;2023-05-23T02:39:55;10.03;;;4.73;;
34242;SDS011;20504;43.214;27.920;2023-05-23T02:42:21;15.23;;;4.33;;
34242;SDS011;20504;43.214;27.920;2023-05-23T02:44:46;7.80;;;4.37;;
34242;SDS011;20504;43.214;27.920;2023-05-23T02:47:12;8.10;;;4.57;;
34242;SDS011;20504;43.214;27.920;2023-05-23T02:49:37;10.50;;;3.83;;
34242;SDS011;20504;43.214;27.920;2023-05-23T02:52:03;12.33;;;5.20;;
34242;SDS011;20504;43.214;27.920;2023-05-23T02:54:28;9.27;;;4.20;;
34242;SDS011;20504;43.214;27.920;2023-05-23T02:56:55;12.73;;;4.38;;
34242;SDS011;20504;43.214;27.920;2023-05-23T02:59:20;10.80;;;5.00;;
34242;SDS011;20504;43.214;27.920;2023-05-23T03:01:47;5.57;;;4.25;;
34242;SDS011;20504;43.214;27.920;2023-05-23T03:04:12;14.17;;;4.80;;
34242;SDS011;20504;43.214;27.920;2023-05-23T03:06:38;8.37;;;4.37;;
34242;SDS011;20504;43.214;27.920;2023-05-23T03:09:06;7.63;;;4.78;;
34242;SDS011;20504;43.214;27.920;2023-05-23T03:11:32;7.57;;;5.13;;
34242;SDS011;20504;43.214;27.920;2023-05-23T03:13:57;7.43;;;4.47;;
34242;SDS011;20504;43.214;27.920;2023-05-23T03:16:23;10.43;;;4.80;;
34242;SDS011;20504;43.214;27.920;2023-05-23T03:18:48;10.93;;;4.30;;
34242;SDS011;20504;43.214;27.920;2023-05-23T03:21:13;9.90;;;4.37;;
34242;SDS011;20504;43.214;27.920;2023-05-23T03:23:39;13.20;;;4.93;;
34242;SDS011;20504;43.214;27.920;2023-05-23T03:26:04;10.87;;;4.43;;
34242;SDS011;20504;43.214;27.920;2023-05-23T03:28:30;7.40;;;4.27;;
34242;SDS011;20504;43.214;27.920;2023-05-23T03:30:56;6.60;;;4.50;;
34242;SDS011;20504;43.214;27.920;2023-05-23T03:33:22;11.82;;;5.22;;
34242;SDS011;20504;43.214;27.920;2023-05-23T03:35:48;10.02;;;4.90;;
34242;SDS011;20504;43.214;27.920;2023-05-23T03:38:14;8.57;;;4.57;;
34242;SDS011;20504;43.214;27.920;2023-05-23T03:40:42;7.38;;;4.65;;
34242;SDS011;20504;43.214;27.920;2023-05-23T03:43:08;10.97;;;4.50;;
34242;SDS011;20504;43.214;27.920;2023-05-23T03:45:33;8.20;;;4.77;;
34242;SDS011;20504;43.214;27.920;2023-05-23T03:47:59;8.93;;;5.23;;
34242;SDS011;20504;43.214;27.920;2023-05-23T03:50:25;8.07;;;4.68;;
34242;SDS011;20504;43.214;27.920;2023-05-23T03:52:51;8.98;;;4.40;;
34242;SDS011;20504;43.214;27.920;2023-05-23T03:55:17;9.45;;;5.00;;
34242;SDS011;20504;43.214;27.920;2023-05-23T03:57:49;8.75;;;4.85;;
34242;SDS011;20504;43.214;27.920;2023-05-23T04:00:16;9.63;;;4.88;;
34242;SDS011;20504;43.214;27.920;2023-05-23T04:05:08;9.10;;;5.40;;
34242;SDS011;20504;43.214;27.920;2023-05-23T04:07:34;8.47;;;4.87;;
34242;SDS011;20504;43.214;27.920;2023-05-23T04:10:00;10.45;;;5.30;;
34242;SDS011;20504;43.214;27.920;2023-05-23T04:12:26;9.70;;;5.10;;
34242;SDS011;20504;43.214;27.920;2023-05-23T04:14:54;7.80;;;4.47;;
34242;SDS011;20504;43.214;27.920;2023-05-23T04:17:20;7.90;;;4.77;;
34242;SDS011;20504;43.214;27.920;2023-05-23T04:19:46;12.63;;;4.80;;
34242;SDS011;20504;43.214;27.920;2023-05-23T04:22:12;10.87;;;5.07;;
34242;SDS011;20504;43.214;27.920;2023-05-23T04:24:37;10.07;;;4.77;;
34242;SDS011;20504;43.214;27.920;2023-05-23T04:27:03;9.10;;;4.90;;
34242;SDS011;20504;43.214;27.920;2023-05-23T04:29:29;10.67;;;4.70;;
34242;SDS011;20504;43.214;27.920;2023-05-23T04:31:57;7.00;;;4.25;;
34242;SDS011;20504;43.214;27.920;2023-05-23T04:34:22;13.50;;;5.33;;
34242;SDS011;20504;43.214;27.920;2023-05-23T04:36:48;9.00;;;5.03;;
34242;SDS011;20504;43.214;27.920;2023-05-23T04:39:14;6.93;;;4.17;;
34242;SDS011;20504;43.214;27.920;2023-05-23T04:41:41;11.48;;;4.65;;
34242;SDS011;20504;43.214;27.920;2023-05-23T04:44:08;10.85;;;5.10;;
34242;SDS011;20504;43.214;27.920;2023-05-23T04:46:34;14.00;;;5.40;;
34242;SDS011;20504;43.214;27.920;2023-05-23T04:49:00;9.90;;;4.65;;
34242;SDS011;20504;43.214;27.920;2023-05-23T04:51:27;10.35;;;4.72;;
34242;SDS011;20504;43.214;27.920;2023-05-23T04:53:53;12.57;;;5.13;;
34242;SDS011;20504;43.214;27.920;2023-05-23T04:56:19;8.50;;;5.10;;
34242;SDS011;20504;43.214;27.920;2023-05-23T04:58:45;14.03;;;4.33;;
34242;SDS011;20504;43.214;27.920;2023-05-23T05:01:11;8.70;;;4.22;;
34242;SDS011;20504;43.214;27.920;2023-05-23T05:06:03;10.02;;;4.70;;
34242;SDS011;20504;43.214;27.920;2023-05-23T05:08:30;13.20;;;5.50;;
34242;SDS011;20504;43.214;27.920;2023-05-23T05:10:56;13.10;;;5.07;;
34242;SDS011;20504;43.214;27.920;2023-05-23T05:13:21;9.43;;;4.83;;
34242;SDS011;20504;43.214;27.920;2023-05-23T05:15:47;7.50;;;5.00;;
34242;SDS011;20504;43.214;27.920;2023-05-23T05:18:13;11.10;;;4.50;;
34242;SDS011;20504;43.214;27.920;2023-05-23T05:20:38;10.03;;;4.73;;
34242;SDS011;20504;43.214;27.920;2023-05-23T05:23:04;13.00;;;4.73;;
34242;SDS011;20504;43.214;27.920;2023-05-23T05:25:29;7.23;;;4.23;;
34242;SDS011;20504;43.214;27.920;2023-05-23T05:27:59;10.27;;;4.30;;
34242;SDS011;20504;43.214;27.920;2023-05-23T05:30:29;9.70;;;4.88;;
34242;SDS011;20504;43.214;27.920;2023-05-23T05:32:57;10.95;;;4.38;;
34242;SDS011;20504;43.214;27.920;2023-05-23T05:35:23;8.83;;;4.73;;
34242;SDS011;20504;43.214;27.920;2023-05-23T05:37:48;12.33;;;5.77;;
34242;SDS011;20504;43.214;27.920;2023-05-23T05:40:17;9.07;;;4.97;;
34242;SDS011;20504;43.214;27.920;2023-05-23T05:42:43;11.40;;;5.07;;
34242;SDS011;20504;43.214;27.920;2023-05-23T05:45:11;13.18;;;5.82;;
34242;SDS011;20504;43.214;27.920;2023-05-23T05:47:37;12.80;;;5.17;;
34242;SDS011;20504;43.214;27.920;2023-05-23T05:50:03;11.10;;;4.93;;
34242;SDS011;20504;43.214;27.920;2023-05-23T05:52:32;6.55;;;4.63;;
34242;SDS011;20504;43.214;27.920;2023-05-23T05:54:58;9.63;;;4.97;;
34242;SDS011;20504;43.214;27.920;2023-05-23T05:57:24;11.10;;;4.40;;
34242;SDS011;20504;43.214;27.920;2023-05-23T05:59:49;9.13;;;4.63;;
34242;SDS011;20504;43.214;27.920;2023-05-23T06:02:15;11.20;;;4.90;;
34242;SDS011;20504;43.214;27.920;2023-05-23T06:04:40;8.73;;;4.10;;
34242;SDS011;20504;43.214;27.920;2023-05-23T06:07:06;10.33;;;4.80;;
34242;SDS011;20504;43.214;27.920;2023-05-23T06:09:31;13.77;;;5.63;;
34242;SDS011;20504;43.214;27.920;2023-05-23T06:14:24;10.02;;;5.53;;
34242;SDS011;20504;43.214;27.920;2023-05-23T06:16:50;7.40;;;4.73;;
34242;SDS011;20504;43.214;27.920;2023-05-23T06:19:15;7.87;;;5.07;;
34242;SDS011;20504;43.214;27.920;2023-05-23T06:21:41;12.00;;;5.00;;
34242;SDS011;20504;43.214;27.920;2023-05-23T06:24:06;9.43;;;4.67;;
34242;SDS011;20504;43.214;27.920;2023-05-23T06:26:32;14.70;;;5.60;;
34242;SDS011;20504;43.214;27.920;2023-05-23T06:28:57;11.10;;;5.27;;
34242;SDS011;20504;43.214;27.920;2023-05-23T06:31:23;13.50;;;5.97;;
34242;SDS011;20504;43.214;27.920;2023-05-23T06:33:48;9.53;;;4.70;;
34242;SDS011;20504;43.214;27.920;2023-05-23T06:36:15;9.73;;;5.22;;
34242;SDS011;20504;43.214;27.920;2023-05-23T06:38:40;15.27;;;5.17;;
34242;SDS011;20504;43.214;27.920;2023-05-23T06:41:06;10.07;;;5.17;;
34242;SDS011;20504;43.214;27.920;2023-05-23T06:43:31;7.33;;;5.13;;
34242;SDS011;20504;43.214;27.920;2023-05-23T06:45:56;11.77;;;5.33;;
34242;SDS011;20504;43.214;27.920;2023-05-23T06:48:22;12.33;;;4.80;;
34242;SDS011;20504;43.214;27.920;2023-05-23T06:50:47;11.43;;;5.13;;
34242;SDS011;20504;43.214;27.920;2023-05-23T06:53:13;6.30;;;4.43;;
34242;SDS011;20504;43.214;27.920;2023-05-23T06:55:40;10.15;;;4.70;;
34242;SDS011;20504;43.214;27.920;2023-05-23T06:58:06;10.33;;;5.20;;
34242;SDS011;20504;43.214;27.920;2023-05-23T07:00:31;11.87;;;5.03;;
34242;SDS011;20504;43.214;27.920;2023-05-23T07:02:57;9.90;;;4.80;;
34242;SDS011;20504;43.214;27.920;2023-05-23T07:05:27;16.30;;;5.30;;
34242;SDS011;20504;43.214;27.920;2023-05-23T07:07:53;9.83;;;5.57;;
34242;SDS011;20504;43.214;27.920;2023-05-23T07:10:18;10.23;;;5.93;;
34242;SDS011;20504;43.214;27.920;2023-05-23T07:12:45;11.07;;;5.40;;
34242;SDS011;20504;43.214;27.920;2023-05-23T07:15:11;11.43;;;4.60;;
34242;SDS011;20504;43.214;27.920;2023-05-23T07:17:37;12.13;;;5.35;;
34242;SDS011;20504;43.214;27.920;2023-05-23T07:20:03;8.80;;;5.00;;
34242;SDS011;20504;43.214;27.920;2023-05-23T07:22:29;11.67;;;5.77;;
34242;SDS011;20504;43.214;27.920;2023-05-23T07:24:55;9.75;;;5.75;;
34242;SDS011;20504;43.214;27.920;2023-05-23T07:27:21;6.47;;;5.00;;
34242;SDS011;20504;43.214;27.920;2023-05-23T07:29:46;12.40;;;6.43;;
34242;SDS011;20504;43.214;27.920;2023-05-23T07:32:12;10.57;;;7.43;;
34242;SDS011;20504;43.214;27.920;2023-05-23T07:34:38;16.33;;;8.90;;
34242;SDS011;20504;43.214;27.920;2023-05-23T07:37:03;15.73;;;8.63;;
34242;SDS011;20504;43.214;27.920;2023-05-23T07:39:29;9.70;;;4.80;;
34242;SDS011;20504;43.214;27.920;2023-05-23T07:41:54;9.30;;;4.80;;
34242;SDS011;20504;43.214;27.920;2023-05-23T07:44:20;9.97;;;5.20;;
34242;SDS011;20504;43.214;27.920;2023-05-23T07:46:45;12.40;;;5.83;;
34242;SDS011;20504;43.214;27.920;2023-05-23T07:49:11;9.93;;;5.00;;
34242;SDS011;20504;43.214;27.920;2023-05-23T07:51:36;8.77;;;5.27;;
34242;SDS011;20504;43.214;27.920;2023-05-23T07:54:02;12.77;;;5.67;;
34242;SDS011;20504;43.214;27.920;2023-05-23T07:56:28;11.53;;;5.10;;
34242;SDS011;20504;43.214;27.920;2023-05-23T07:58:53;10.57;;;4.90;;
34242;SDS011;20504;43.214;27.920;2023-05-23T08:01:19;8.17;;;5.73;;
34242;SDS011;20504;43.214;27.920;2023-05-23T08:03:46;15.13;;;5.22;;
34242;SDS011;20504;43.214;27.920;2023-05-23T08:06:11;12.87;;;5.83;;
34242;SDS011;20504;43.214;27.920;2023-05-23T08:08:37;12.77;;;5.00;;
34242;SDS011;20504;43.214;27.920;2023-05-23T08:11:02;11.77;;;5.97;;
34242;SDS011;20504;43.214;27.920;2023-05-23T08:13:28;9.43;;;5.73;;
34242;SDS011;20504;43.214;27.920;2023-05-23T08:15:54;7.75;;;5.35;;
34242;SDS011;20504;43.214;27.920;2023-05-23T08:18:20;9.97;;;5.13;;
34242;SDS011;20504;43.214;27.920;2023-05-23T08:20:45;14.30;;;5.97;;
34242;SDS011;20504;43.214;27.920;2023-05-23T08:23:11;14.70;;;5.90;;
34242;SDS011;20504;43.214;27.920;2023-05-23T08:25:36;8.13;;;5.33;;
34242;SDS011;20504;43.214;27.920;2023-05-23T08:28:02;9.83;;;5.00;;
34242;SDS011;20504;43.214;27.920;2023-05-23T08:30:28;19.50;;;5.70;;
34242;SDS011;20504;43.214;27.920;2023-05-23T08:32:54;10.25;;;5.57;;
34242;SDS011;20504;43.214;27.920;2023-05-23T08:35:20;8.02;;;5.03;;
34242;SDS011;20504;43.214;27.920;2023-05-23T08:37:47;10.93;;;4.82;;
34242;SDS011;20504;43.214;27.920;2023-05-23T08:40:22;7.60;;;4.78;;
34242;SDS011;20504;43.214;27.920;2023-05-23T08:42:49;9.57;;;5.25;;
34242;SDS011;20504;43.214;27.920;2023-05-23T08:45:15;11.90;;;6.20;;
34242;SDS011;20504;43.214;27.920;2023-05-23T08:47:42;10.52;;;6.55;;
34242;SDS011;20504;43.214;27.920;2023-05-23T08:50:12;10.55;;;5.13;;
34242;SDS011;20504;43.214;27.920;2023-05-23T08:52:42;11.82;;;5.45;;
34242;SDS011;20504;43.214;27.920;2023-05-23T08:55:27;11.95;;;5.05;;
34242;SDS011;20504;43.214;27.920;2023-05-23T08:57:53;8.27;;;5.05;;
34242;SDS011;20504;43.214;27.920;2023-05-23T09:00:20;12.00;;;5.10;;
34242;SDS011;20504;43.214;27.920;2023-05-23T09:02:46;10.13;;;5.35;;
34242;SDS011;20504;43.214;27.920;2023-05-23T09:05:12;10.32;;;6.18;;
34242;SDS011;20504;43.214;27.920;2023-05-23T09:07:38;14.02;;;7.10;;
34242;SDS011;20504;43.214;27.920;2023-05-23T09:10:05;16.40;;;7.67;;
34242;SDS011;20504;43.214;27.920;2023-05-23T09:12:33;11.40;;;7.03;;
34242;SDS011;20504;43.214;27.920;2023-05-23T09:15:01;11.65;;;7.55;;
34242;SDS011;20504;43.214;27.920;2023-05-23T09:17:27;13.93;;;7.57;;
34242;SDS011;20504;43.214;27.920;2023-05-23T09:19:52;15.53;;;6.90;;
34242;SDS011;20504;43.214;27.920;2023-05-23T09:22:24;16.47;;;8.97;;
34242;SDS011;20504;43.214;27.920;2023-05-23T09:24:51;12.80;;;8.25;;
34242;SDS011;20504;43.214;27.920;2023-05-23T09:29:42;11.95;;;7.63;;
34242;SDS011;20504;43.214;27.920;2023-05-23T09:32:12;16.83;;;8.18;;
34242;SDS011;20504;43.214;27.920;2023-05-23T09:34:40;12.18;;;7.30;;
34242;SDS011;20504;43.214;27.920;2023-05-23T09:37:46;14.80;;;7.45;;
34242;SDS011;20504;43.214;27.920;2023-05-23T09:40:12;15.85;;;6.93;;
34242;SDS011;20504;43.214;27.920;2023-05-23T09:42:42;12.82;;;7.07;;
34242;SDS011;20504;43.214;27.920;2023-05-23T09:45:11;10.40;;;7.05;;
34242;SDS011;20504;43.214;27.920;2023-05-23T09:47:38;14.88;;;7.80;;
34242;SDS011;20504;43.214;27.920;2023-05-23T09:50:04;14.63;;;7.60;;
34242;SDS011;20504;43.214;27.920;2023-05-23T09:52:35;12.35;;;7.68;;
34242;SDS011;20504;43.214;27.920;2023-05-23T09:55:02;9.35;;;6.97;;
34242;SDS011;20504;43.214;27.920;2023-05-23T09:57:28;14.95;;;8.10;;
34242;SDS011;20504;43.214;27.920;2023-05-23T09:59:56;18.80;;;7.80;;
34242;SDS011;20504;43.214;27.920;2023-05-23T10:03:09;12.73;;;7.78;;
34242;SDS011;20504;43.214;27.920;2023-05-23T10:05:29;14.50;;;8.85;;
34242;SDS011;20504;43.214;27.920;2023-05-23T10:08:00;11.52;;;7.47;;
34242;SDS011;20504;43.214;27.920;2023-05-23T10:10:30;13.65;;;7.80;;
34242;SDS011;20504;43.214;27.920;2023-05-23T10:12:57;17.67;;;7.90;;
34242;SDS011;20504;43.214;27.920;2023-05-23T10:15:27;12.85;;;7.55;;
34242;SDS011;20504;43.214;27.920;2023-05-23T10:18:09;13.07;;;7.63;;
34242;SDS011;20504;43.214;27.920;2023-05-23T10:20:42;14.05;;;7.47;;
34242;SDS011;20504;43.214;27.920;2023-05-23T10:23:11;10.60;;;7.18;;
34242;SDS011;20504;43.214;27.920;2023-05-23T10:25:37;14.95;;;7.72;;
34242;SDS011;20504;43.214;27.920;2023-05-23T10:28:05;14.90;;;7.78;;
34242;SDS011;20504;43.214;27.920;2023-05-23T10:30:31;18.33;;;8.00;;
34242;SDS011;20504;43.214;27.920;2023-05-23T10:32:57;17.10;;;7.30;;
34242;SDS011;20504;43.214;27.920;2023-05-23T10:37:56;15.25;;;6.80;;
34242;SDS011;20504;43.214;27.920;2023-05-23T10:46:12;14.00;;;7.60;;
34242;SDS011;20504;43.214;27.920;2023-05-23T10:48:42;14.20;;;7.60;;
34242;SDS011;20504;43.214;27.920;2023-05-23T10:51:09;17.13;;;8.65;;
34242;SDS011;20504;43.214;27.920;2023-05-23T10:53:45;15.25;;;8.27;;
34242;SDS011;20504;43.214;27.920;2023-05-23T10:56:20;21.67;;;10.45;;
34242;SDS011;20504;43.214;27.920;2023-05-23T10:58:53;21.75;;;9.35;;
34242;SDS011;20504;43.214;27.920;2023-05-23T11:01:20;20.27;;;8.98;;
34242;SDS011;20504;43.214;27.920;2023-05-23T11:06:31;22.33;;;9.45;;
34242;SDS011;20504;43.214;27.920;2023-05-23T11:09:03;22.33;;;9.13;;
34242;SDS011;20504;43.214;27.920;2023-05-23T11:14:14;23.35;;;10.27;;
34242;SDS011;20504;43.214;27.920;2023-05-23T11:16:40;19.90;;;10.20;;
34242;SDS011;20504;43.214;27.920;2023-05-23T11:21:57;15.75;;;10.77;;
34242;SDS011;20504;43.214;27.920;2023-05-23T11:24:46;15.10;;;9.35;;
34242;SDS011;20504;43.214;27.920;2023-05-23T11:27:13;16.65;;;8.77;;
34242;SDS011;20504;43.214;27.920;2023-05-23T11:29:39;17.17;;;9.15;;
34242;SDS011;20504;43.214;27.920;2023-05-23T11:32:09;18.13;;;8.90;;
34242;SDS011;20504;43.214;27.920;2023-05-23T11:34:37;16.40;;;9.15;;
34242;SDS011;20504;43.214;27.920;2023-05-23T11:37:03;15.93;;;9.00;;
34242;SDS011;20504;43.214;27.920;2023-05-23T11:39:29;14.23;;;8.37;;
34242;SDS011;20504;43.214;27.920;2023-05-23T11:41:58;15.47;;;8.83;;
34242;SDS011;20504;43.214;27.920;2023-05-23T11:44:27;15.05;;;8.35;;
34242;SDS011;20504;43.214;27.920;2023-05-23T11:47:03;11.13;;;7.22;;
34242;SDS011;20504;43.214;27.920;2023-05-23T11:49:31;14.43;;;7.38;;
34242;SDS011;20504;43.214;27.920;2023-05-23T11:52:00;15.68;;;8.15;;
34242;SDS011;20504;43.214;27.920;2023-05-23T11:54:26;12.82;;;7.75;;
34242;SDS011;20504;43.214;27.920;2023-05-23T11:56:53;16.05;;;7.35;;
34242;SDS011;20504;43.214;27.920;2023-05-23T11:59:26;11.82;;;7.22;;
34242;SDS011;20504;43.214;27.920;2023-05-23T12:01:52;14.63;;;7.57;;
34242;SDS011;20504;43.214;27.920;2023-05-23T12:04:18;9.60;;;6.70;;
34242;SDS011;20504;43.214;27.920;2023-05-23T12:06:47;10.37;;;6.10;;
34242;SDS011;20504;43.214;27.920;2023-05-23T12:09:14;10.32;;;5.93;;
34242;SDS011;20504;43.214;27.920;2023-05-23T12:14:07;12.18;;;6.22;;
34242;SDS011;20504;43.214;27.920;2023-05-23T12:16:34;10.30;;;6.22;;
34242;SDS011;20504;43.214;27.920;2023-05-23T12:21:27;13.00;;;7.15;;
34242;SDS011;20504;43.214;27.920;2023-05-23T12:24:17;12.40;;;7.32;;
34242;SDS011;20504;43.214;27.920;2023-05-23T12:26:53;11.85;;;6.78;;
34242;SDS011;20504;43.214;27.920;2023-05-23T12:31:58;16.92;;;7.60;;
34242;SDS011;20504;43.214;27.920;2023-05-23T12:34:24;11.32;;;7.70;;
34242;SDS011;20504;43.214;27.920;2023-05-23T12:36:53;11.53;;;7.57;;
34242;SDS011;20504;43.214;27.920;2023-05-23T12:39:27;10.73;;;6.93;;
34242;SDS011;20504;43.214;27.920;2023-05-23T12:41:54;8.48;;;6.15;;
34242;SDS011;20504;43.214;27.920;2023-05-23T12:44:31;9.98;;;5.88;;
34242;SDS011;20504;43.214;27.920;2023-05-23T12:46:56;12.40;;;5.83;;
34242;SDS011;20504;43.214;27.920;2023-05-23T12:49:22;9.27;;;5.50;;
34242;SDS011;20504;43.214;27.920;2023-05-23T12:51:47;8.07;;;5.83;;
34242;SDS011;20504;43.214;27.920;2023-05-23T12:54:13;8.17;;;6.23;;
34242;SDS011;20504;43.214;27.920;2023-05-23T12:56:38;7.40;;;5.40;;
34242;SDS011;20504;43.214;27.920;2023-05-23T12:59:04;9.97;;;5.43;;
34242;SDS011;20504;43.214;27.920;2023-05-23T13:01:29;9.57;;;5.53;;
34242;SDS011;20504;43.214;27.920;2023-05-23T13:03:55;9.70;;;5.70;;
34242;SDS011;20504;43.214;27.920;2023-05-23T13:06:21;11.53;;;6.03;;
34242;SDS011;20504;43.214;27.920;2023-05-23T13:08:46;8.18;;;5.22;;
34242;SDS011;20504;43.214;27.920;2023-05-23T13:11:14;5.90;;;5.00;;
34242;SDS011;20504;43.214;27.920;2023-05-23T13:13:40;8.05;;;5.63;;
34242;SDS011;20504;43.214;27.920;2023-05-23T13:16:06;6.95;;;4.88;;
34242;SDS011;20504;43.214;27.920;2023-05-23T13:18:32;8.52;;;4.45;;
34242;SDS011;20504;43.214;27.920;2023-05-23T13:20:57;8.23;;;5.27;;
34242;SDS011;20504;43.214;27.920;2023-05-23T13:23:23;7.30;;;5.47;;
34242;SDS011;20504;43.214;27.920;2023-05-23T13:25:49;11.80;;;5.40;;
34242;SDS011;20504;43.214;27.920;2023-05-23T13:28:15;8.82;;;5.55;;
34242;SDS011;20504;43.214;27.920;2023-05-23T13:30:41;9.65;;;6.25;;
34242;SDS011;20504;43.214;27.920;2023-05-23T13:33:07;8.43;;;5.55;;
34242;SDS011;20504;43.214;27.920;2023-05-23T13:35:32;10.43;;;5.60;;
34242;SDS011;20504;43.214;27.920;2023-05-23T13:37:58;9.47;;;5.40;;
34242;SDS011;20504;43.214;27.920;2023-05-23T13:40:24;9.17;;;5.37;;
34242;SDS011;20504;43.214;27.920;2023-05-23T13:42:49;7.97;;;5.13;;
34242;SDS011;20504;43.214;27.920;2023-05-23T13:45:15;11.45;;;5.05;;
34242;SDS011;20504;43.214;27.920;2023-05-23T13:47:42;8.60;;;5.18;;
34242;SDS011;20504;43.214;27.920;2023-05-23T13:50:08;6.68;;;5.00;;
34242;SDS011;20504;43.214;27.920;2023-05-23T13:52:34;10.77;;;6.07;;
34242;SDS011;20504;43.214;27.920;2023-05-23T13:55:00;11.65;;;5.55;;
34242;SDS011;20504;43.214;27.920;2023-05-23T13:57:26;12.18;;;5.57;;
34242;SDS011;20504;43.214;27.920;2023-05-23T13:59:52;12.63;;;7.90;;
34242;SDS011;20504;43.214;27.920;2023-05-23T14:02:17;9.80;;;6.17;;
34242;SDS011;20504;43.214;27.920;2023-05-23T14:04:43;11.37;;;7.70;;
34242;SDS011;20504;43.214;27.920;2023-05-23T14:07:08;10.07;;;7.00;;
34242;SDS011;20504;43.214;27.920;2023-05-23T14:09:33;12.20;;;6.90;;
34242;SDS011;20504;43.214;27.920;2023-05-23T14:11:59;11.20;;;6.20;;
34242;SDS011;20504;43.214;27.920;2023-05-23T14:14:25;9.50;;;5.90;;
34242;SDS011;20504;43.214;27.920;2023-05-23T14:16:51;12.50;;;6.63;;
34242;SDS011;20504;43.214;27.920;2023-05-23T14:19:16;10.77;;;5.83;;
34242;SDS011;20504;43.214;27.920;2023-05-23T14:21:42;11.68;;;7.07;;
34242;SDS011;20504;43.214;27.920;2023-05-23T14:24:08;11.03;;;5.77;;
34242;SDS011;20504;43.214;27.920;2023-05-23T14:26:34;8.33;;;5.67;;
34242;SDS011;20504;43.214;27.920;2023-05-23T14:28:59;10.27;;;5.63;;
34242;SDS011;20504;43.214;27.920;2023-05-23T14:31:25;8.67;;;5.67;;
34242;SDS011;20504;43.214;27.920;2023-05-23T14:33:50;11.43;;;5.83;;
34242;SDS011;20504;43.214;27.920;2023-05-23T14:36:16;8.97;;;5.80;;
34242;SDS011;20504;43.214;27.920;2023-05-23T14:38:41;13.37;;;6.20;;
34242;SDS011;20504;43.214;27.920;2023-05-23T14:41:10;7.88;;;6.30;;
34242;SDS011;20504;43.214;27.920;2023-05-23T14:43:36;13.23;;;6.57;;
34242;SDS011;20504;43.214;27.920;2023-05-23T14:46:01;12.07;;;7.57;;
34242;SDS011;20504;43.214;27.920;2023-05-23T14:48:27;11.43;;;6.60;;
34242;SDS011;20504;43.214;27.920;2023-05-23T14:50:52;10.90;;;7.50;;
34242;SDS011;20504;43.214;27.920;2023-05-23T14:53:18;9.57;;;6.93;;
34242;SDS011;20504;43.214;27.920;2023-05-23T14:55:46;13.82;;;8.30;;
34242;SDS011;20504;43.214;27.920;2023-05-23T14:58:12;11.27;;;7.53;;
34242;SDS011;20504;43.214;27.920;2023-05-23T15:00:37;11.23;;;7.13;;
34242;SDS011;20504;43.214;27.920;2023-05-23T15:03:04;9.98;;;7.60;;
34242;SDS011;20504;43.214;27.920;2023-05-23T15:05:30;15.67;;;8.70;;
34242;SDS011;20504;43.214;27.920;2023-05-23T15:07:55;12.70;;;8.10;;
34242;SDS011;20504;43.214;27.920;2023-05-23T15:10:21;11.93;;;7.63;;